aviador You're here:

KCSM Decoded Metar

CLINTON in OK, USA
Report Time2017-06-27 04:53:00
UTC Time2017-06-27 05:26:42
Flight Rules vfr VFR
Wind170° at 12 kt
W.Decomp.*RWY 17: 11.9 kt HW 1.7 kt LCW
W.Rank170° ranks 2
Current wind is below 170° avg. (13.7)
Visibility9999 m
Phenomena:N/A
Clouds:N/A
Expected CloudBase > 2,000 ft AGL from Temp-Dew spread
CeilingNone
Temp24°C (ISA +13)
Dew Point19°C (74% RH)
AAT22.9°C
QNH1019 hPa
Density Alt3,510 ft
Elevation1,929 ft
Report Wrong Elevation
Raw Report
KCSM 270453Z 17012KT 10SM CLR 24/19 A3008 RMK AO2 SLP161
T02390189=

Extra information for KCSM:More info

Metar Taf Metar & Taf Last 4 Metars F.Rules Stats Wind Profile Meteogram Temp Stats Airport Information Weather charts Add Link Nearby VenuesMetar ALERT Operation Metar Decoded Social comments

AIRNAV info for KCSM